Time;durP1;ratioP1;P1;durP2;ratioP2;P2;SDS_P1;SDS_P2;PMS_P1;PMS_P2;Temp;Humidity;BMP_temperature;BMP_pressure;BME280_temperature;BME280_humidity;BME280_pressure;Samples;Min_cycle;Max_cycle;Signal;HPM_P1;HPM_P2
2022/11/25 00:01:48;;;;;;;31.13;27.92;;;12.20;99.90;;;;;;4991714;28;20038;-80
2022/11/25 00:04:14;;;;;;;33.45;28.05;;;12.20;99.90;;;;;;5005110;28;20061;-80
2022/11/25 00:06:41;;;;;;;30.67;26.92;;;12.20;99.90;;;;;;5007107;28;20042;-80
2022/11/25 00:09:09;;;;;;;37.83;27.77;;;12.20;99.90;;;;;;4991650;28;20030;-80
2022/11/25 00:11:36;;;;;;;25.98;23.25;;;12.10;99.90;;;;;;4991823;28;20059;-80
2022/11/25 00:14:02;;;;;;;30.10;25.95;;;12.00;99.90;;;;;;4991735;28;20031;-80
2022/11/25 00:16:29;;;;;;;31.77;28.42;;;11.90;99.90;;;;;;4997402;28;20483;-80
2022/11/25 00:18:56;;;;;;;31.52;28.55;;;11.90;99.90;;;;;;4990776;28;20035;-80
2022/11/25 00:21:24;;;;;;;28.95;26.27;;;11.90;99.90;;;;;;5022883;28;20049;-80
2022/11/25 00:23:52;;;;;;;31.02;27.55;;;11.90;99.90;;;;;;4990468;28;20135;-80
2022/11/25 00:26:18;;;;;;;30.88;27.63;;;11.90;99.90;;;;;;4974640;28;20053;-80
2022/11/25 00:28:45;;;;;;;28.65;25.90;;;11.90;99.90;;;;;;5006844;28;20038;-80
2022/11/25 00:31:16;;;;;;;30.40;27.52;;;11.90;99.90;;;;;;4992614;28;20045;-80
2022/11/25 00:33:42;;;;;;;29.95;26.90;;;11.90;99.90;;;;;;4973459;28;20030;-80
2022/11/25 00:36:22;;;;;;;28.23;24.27;;;11.90;99.90;;;;;;4974232;28;20050;-80
2022/11/25 00:38:55;;;;;;;28.45;25.42;;;11.80;99.90;;;;;;5008208;28;20379;-80
2022/11/25 00:46:53;;;;;;;28.27;25.77;;;11.70;99.90;;;;;;4977275;28;20064;-79
2022/11/25 00:49:19;;;;;;;33.65;27.42;;;11.70;99.90;;;;;;4992547;28;20038;-80
2022/11/25 00:51:45;;;;;;;29.52;26.23;;;11.70;99.90;;;;;;5006857;28;20039;-80
2022/11/25 00:54:11;;;;;;;31.10;25.92;;;11.70;99.90;;;;;;4991860;28;20041;-80
2022/11/25 00:56:37;;;;;;;33.60;26.20;;;11.70;99.90;;;;;;4991644;28;20041;-80
2022/11/25 00:59:03;;;;;;;29.52;26.10;;;11.60;99.90;;;;;;4991203;28;20037;-80
2022/11/25 01:01:29;;;;;;;33.65;26.42;;;11.50;99.90;;;;;;4990055;28;20050;-80
2022/11/25 01:03:55;;;;;;;33.10;25.90;;;11.50;99.90;;;;;;4990286;28;20043;-80
2022/11/25 01:06:22;;;;;;;36.83;25.63;;;11.50;99.90;;;;;;4991004;28;20034;-80
2022/11/25 01:08:48;;;;;;;32.45;25.27;;;11.50;99.90;;;;;;5002247;28;20407;-80
2022/11/25 01:11:16;;;;;;;30.17;27.00;;;11.50;99.90;;;;;;5001028;28;20050;-80
2022/11/25 01:13:42;;;;;;;35.65;26.08;;;11.50;99.90;;;;;;4990593;28;20034;-80
2022/11/25 01:16:11;;;;;;;37.92;26.23;;;11.40;99.90;;;;;;5010491;28;20045;-80
2022/11/25 01:18:37;;;;;;;31.00;26.30;;;11.50;99.90;;;;;;4978570;28;20042;-80
2022/11/25 01:21:07;;;;;;;38.05;26.45;;;11.40;99.90;;;;;;4994240;28;20041;-80
2022/11/25 01:23:34;;;;;;;44.77;24.93;;;11.40;99.90;;;;;;5010025;28;20105;-80
2022/11/25 01:26:04;;;;;;;36.15;26.65;;;11.30;99.90;;;;;;4977262;28;20042;-80
2022/11/25 01:28:30;;;;;;;34.17;25.87;;;11.30;99.90;;;;;;4977605;28;20030;-80
2022/11/25 01:31:04;;;;;;;30.73;26.38;;;11.30;99.90;;;;;;4975199;28;20030;-80
2022/11/25 01:33:33;;;;;;;31.85;25.85;;;11.40;99.90;;;;;;5009050;28;20033;-80
2022/11/25 01:36:11;;;;;;;27.00;24.10;;;11.40;99.90;;;;;;4977687;28;20030;-80
2022/11/25 01:38:37;;;;;;;30.88;26.00;;;11.30;99.90;;;;;;4977989;28;20030;-80
2022/11/25 01:41:03;;;;;;;30.23;25.08;;;11.40;99.90;;;;;;4994921;28;20026;-80
2022/11/25 01:43:29;;;;;;;34.22;24.17;;;11.30;99.90;;;;;;5010500;28;20061;-80
2022/11/25 01:46:17;;;;;;;29.70;26.63;;;11.40;99.90;;;;;;4987989;28;20042;-80
2022/11/25 01:49:07;;;;;;;33.33;25.35;;;11.40;99.90;;;;;;5005755;28;20058;-80
2022/11/25 01:51:39;;;;;;;34.85;25.25;;;11.30;99.90;;;;;;5016701;28;20395;-80
2022/11/25 01:54:05;;;;;;;36.63;26.17;;;11.30;99.90;;;;;;5010098;28;20050;-80
2022/11/25 01:56:36;;;;;;;30.20;26.25;;;11.30;99.90;;;;;;5004806;28;20022;-80
2022/11/25 01:59:02;;;;;;;;;;;11.20;99.90;;;;;;4992478;28;20030;-80
2022/11/25 02:01:28;;;;;;;37.65;23.70;;;11.20;99.90;;;;;;5012197;28;19925;-80
2022/11/25 02:03:54;;;;;;;29.05;26.13;;;11.20;99.90;;;;;;4992558;28;20042;-80
2022/11/25 02:06:23;;;;;;;30.40;23.45;;;11.10;99.90;;;;;;4976901;28;20053;-80
2022/11/25 02:08:52;;;;;;;29.58;24.63;;;11.10;99.90;;;;;;5017897;28;20798;-80
2022/11/25 02:11:18;;;;;;;28.67;25.70;;;11.10;99.90;;;;;;4999082;28;20030;-80
2022/11/25 02:13:45;;;;;;;37.13;27.35;;;11.10;99.90;;;;;;4976727;28;20030;-80
2022/11/25 02:16:11;;;;;;;35.17;26.67;;;11.10;99.90;;;;;;5009216;28;20040;-80
2022/11/25 02:18:37;;;;;;;40.83;24.23;;;11.10;99.90;;;;;;5014382;28;20034;-80
2022/11/25 02:21:03;;;;;;;28.60;25.50;;;11.00;99.90;;;;;;5013773;28;20026;-80
2022/11/25 02:23:50;;;;;;;29.15;25.58;;;11.10;99.90;;;;;;4992400;28;20038;-80
2022/11/25 02:26:17;;;;;;;29.08;21.73;;;11.10;99.90;;;;;;4992067;28;20038;-80
2022/11/25 02:28:43;;;;;;;37.10;24.70;;;11.10;99.90;;;;;;5005144;28;20049;-80
2022/11/25 02:31:09;;;;;;;36.88;24.60;;;11.10;99.90;;;;;;5007026;28;20038;-80
2022/11/25 02:33:35;;;;;;;34.33;25.08;;;11.10;99.90;;;;;;4990555;28;20050;-80
2022/11/25 02:36:06;;;;;;;39.88;24.63;;;11.10;99.90;;;;;;4975315;28;20046;-80
2022/11/25 02:38:43;;;;;;;31.13;26.77;;;11.10;99.90;;;;;;4992476;28;20039;-80
2022/11/25 02:41:13;;;;;;;32.90;24.52;;;11.20;99.90;;;;;;5006990;28;20034;-80
2022/11/25 02:43:40;;;;;;;31.90;24.20;;;11.20;99.90;;;;;;5008225;28;20041;-80
2022/11/25 02:46:08;;;;;;;30.73;23.13;;;11.20;99.90;;;;;;4974678;28;20782;-80
2022/11/25 02:48:36;;;;;;;33.97;21.25;;;11.10;99.90;;;;;;5007985;28;20387;-80
2022/11/25 02:51:02;;;;;;;30.45;18.15;;;11.10;99.90;;;;;;4992687;28;20026;-79
2022/11/25 02:53:28;;;;;;;34.75;18.17;;;11.10;99.90;;;;;;5010598;28;20026;-78
2022/11/25 02:55:54;;;;;;;30.50;16.70;;;11.10;99.90;;;;;;5008837;28;20031;-79
2022/11/25 02:58:20;;;;;;;33.97;18.38;;;11.00;99.90;;;;;;5008911;28;20051;-80
2022/11/25 03:00:47;;;;;;;27.13;19.90;;;10.90;99.90;;;;;;4990618;28;20035;-80
2022/11/25 03:03:13;;;;;;;27.42;18.25;;;10.90;99.90;;;;;;5005941;28;20033;-79
2022/11/25 03:05:39;;;;;;;30.27;18.23;;;10.80;99.90;;;;;;4974594;28;20023;-80
2022/11/25 03:08:05;;;;;;;32.50;19.60;;;10.80;99.90;;;;;;4999307;28;20046;-80
2022/11/25 03:10:31;;;;;;;29.70;21.65;;;10.70;99.90;;;;;;4991596;28;20031;-79
2022/11/25 03:12:57;;;;;;;30.70;21.80;;;10.70;99.90;;;;;;5007806;28;20041;-80
2022/11/25 03:15:24;;;;;;;37.83;21.17;;;10.70;99.90;;;;;;5007197;28;20034;-78
2022/11/25 03:17:50;;;;;;;29.60;21.95;;;10.80;99.90;;;;;;4992007;28;20038;-79
2022/11/25 03:20:16;;;;;;;30.63;22.50;;;10.80;99.90;;;;;;5014837;28;20038;-79
2022/11/25 03:22:43;;;;;;;27.05;20.65;;;10.90;99.90;;;;;;4992739;28;20050;-79
2022/11/25 03:25:10;;;;;;;28.60;20.13;;;10.90;99.90;;;;;;4991297;28;20054;-80
2022/11/25 03:27:37;;;;;;;26.98;20.35;;;10.80;99.90;;;;;;5006884;28;20042;-80
2022/11/25 03:30:03;;;;;;;24.88;16.48;;;10.90;99.90;;;;;;4997177;28;20049;-80
2022/11/25 03:32:30;;;;;;;25.30;17.27;;;10.80;99.90;;;;;;4975111;28;20039;-80
2022/11/25 03:34:56;;;;;;;25.38;17.20;;;10.70;99.90;;;;;;4987374;28;20089;-80
2022/11/25 03:37:22;;;;;;;22.58;16.83;;;10.70;99.90;;;;;;4991796;28;20050;-80
2022/11/25 03:39:48;;;;;;;27.35;17.27;;;10.70;99.90;;;;;;5007783;28;20034;-80
2022/11/25 03:42:14;;;;;;;28.50;15.93;;;10.70;99.90;;;;;;4991419;28;20388;-79
2022/11/25 03:44:40;;;;;;;29.83;18.52;;;10.60;99.90;;;;;;5004536;28;20039;-79
2022/11/25 03:47:06;;;;;;;23.05;17.80;;;10.50;99.90;;;;;;5006847;28;20046;-79
2022/11/25 03:49:32;;;;;;;31.05;17.27;;;10.60;99.90;;;;;;4990202;28;20034;-80
2022/11/25 03:51:59;;;;;;;24.90;16.85;;;10.50;99.90;;;;;;5007317;28;20057;-80
2022/11/25 03:54:25;;;;;;;28.20;17.85;;;10.40;99.90;;;;;;4992508;28;20026;-80
2022/11/25 03:56:51;;;;;;;21.45;18.02;;;10.30;99.90;;;;;;5006247;28;20041;-80
2022/11/25 03:59:17;;;;;;;31.05;18.92;;;10.30;99.90;;;;;;5004540;28;20033;-78
2022/11/25 04:01:43;;;;;;;26.58;17.38;;;10.30;99.90;;;;;;5013405;28;20037;-78
2022/11/25 04:04:09;;;;;;;24.30;18.15;;;10.30;99.90;;;;;;4995258;28;20030;-79
2022/11/25 04:06:38;;;;;;;24.35;16.88;;;10.20;99.90;;;;;;4990837;28;20058;-78
2022/11/25 04:09:07;;;;;;;28.70;17.92;;;10.20;99.90;;;;;;5006978;28;20027;-79
2022/11/25 04:14:18;;;;;;;28.92;16.60;;;10.30;99.90;;;;;;4984731;28;20037;-80
2022/11/25 04:16:44;;;;;;;25.02;16.05;;;10.20;99.90;;;;;;4977498;28;20415;-81
2022/11/25 04:19:10;;;;;;;20.38;15.23;;;10.10;99.90;;;;;;4973867;28;20034;-79
2022/11/25 04:21:36;;;;;;;27.08;15.05;;;10.10;99.90;;;;;;4992456;28;20041;-81
2022/11/25 04:24:02;;;;;;;24.63;15.93;;;10.10;99.90;;;;;;4992572;28;20042;-79
2022/11/25 04:26:29;;;;;;;28.67;16.15;;;10.10;99.90;;;;;;4991076;28;20499;-80
2022/11/25 04:28:55;;;;;;;17.40;15.65;;;10.00;99.90;;;;;;4992282;28;20038;-78
2022/11/25 04:31:21;;;;;;;23.10;15.55;;;10.00;99.90;;;;;;5007531;28;20041;-79
2022/11/25 04:33:47;;;;;;;25.95;14.93;;;9.90;99.90;;;;;;4986984;28;20031;-80
2022/11/25 04:36:13;;;;;;;25.05;14.85;;;9.80;99.90;;;;;;4988406;28;20388;-80
2022/11/25 04:38:39;;;;;;;25.90;14.73;;;9.80;99.90;;;;;;4990290;28;20027;-79
2022/11/25 04:41:05;;;;;;;21.42;15.52;;;9.80;99.90;;;;;;4992075;28;20424;-80
2022/11/25 04:43:31;;;;;;;20.58;15.80;;;9.90;99.90;;;;;;4991174;28;20041;-82
2022/11/25 04:45:57;;;;;;;20.55;13.98;;;9.90;99.90;;;;;;4974856;28;20050;-79
2022/11/25 04:48:23;;;;;;;20.70;15.07;;;9.80;99.90;;;;;;4989376;28;20057;-80
2022/11/25 04:50:50;;;;;;;677.80;60.00;;;9.70;99.90;;;;;;4994184;28;20026;-80
2022/11/25 04:53:16;;;;;;;23.52;15.93;;;9.70;99.90;;;;;;4993990;28;20037;-80
2022/11/25 04:55:42;;;;;;;23.38;14.57;;;9.60;99.90;;;;;;4995031;28;20033;-79
2022/11/25 04:58:12;;;;;;;25.55;16.02;;;9.50;99.90;;;;;;4978664;28;20034;-80
2022/11/25 05:00:38;;;;;;;32.30;16.58;;;9.50;99.90;;;;;;4978056;28;20041;-80
2022/11/25 05:03:04;;;;;;;27.50;15.20;;;9.50;99.90;;;;;;5010609;28;20377;-80
2022/11/25 05:05:30;;;;;;;25.42;14.27;;;9.50;99.90;;;;;;4994962;28;20022;-80
2022/11/25 05:07:56;;;;;;;22.45;14.32;;;9.50;99.90;;;;;;4994769;28;20053;-80
2022/11/25 05:10:22;;;;;;;23.58;14.90;;;9.50;99.90;;;;;;4995028;28;20030;-80
2022/11/25 05:12:48;;;;;;;21.52;15.02;;;9.40;99.90;;;;;;4979325;28;20049;-80
2022/11/25 05:15:14;;;;;;;17.10;13.93;;;9.40;99.90;;;;;;4993304;28;20419;-80
2022/11/25 05:17:40;;;;;;;15.38;13.77;;;9.40;99.90;;;;;;4999384;28;20042;-80
2022/11/25 05:20:07;;;;;;;17.77;14.52;;;9.40;99.90;;;;;;4995101;28;20042;-80
2022/11/25 05:22:33;;;;;;;15.32;12.98;;;9.50;99.90;;;;;;5008598;28;20415;-80
2022/11/25 05:24:59;;;;;;;21.25;14.73;;;9.40;99.90;;;;;;5011078;28;20042;-80
2022/11/25 05:27:26;;;;;;;18.05;14.82;;;9.40;99.90;;;;;;4994543;28;20046;-80
2022/11/25 05:29:52;;;;;;;16.90;13.55;;;9.40;99.90;;;;;;5010142;28;20042;-80
2022/11/25 05:32:18;;;;;;;17.20;13.73;;;9.30;99.90;;;;;;4995358;28;20039;-80
2022/11/25 05:34:44;;;;;;;20.85;14.27;;;9.30;99.90;;;;;;5008328;28;20459;-80
2022/11/25 05:37:12;;;;;;;14.98;13.63;;;9.40;99.90;;;;;;5010456;28;20045;-80
2022/11/25 05:39:38;;;;;;;15.57;13.60;;;9.30;99.90;;;;;;4995662;28;20065;-80
2022/11/25 05:42:04;;;;;;;16.85;13.50;;;9.30;99.90;;;;;;4993711;28;20038;-80
2022/11/25 05:44:30;;;;;;;14.70;13.20;;;9.20;99.90;;;;;;5010546;28;20387;-80
2022/11/25 05:46:56;;;;;;;34.30;14.03;;;9.10;99.90;;;;;;4994948;28;20058;-80
2022/11/25 05:49:22;;;;;;;16.33;13.48;;;9.10;99.90;;;;;;4994850;28;20392;-81
2022/11/25 05:51:48;;;;;;;14.93;13.23;;;9.10;99.90;;;;;;5009831;28;20026;-81
2022/11/25 05:54:15;;;;;;;15.20;12.98;;;9.10;99.90;;;;;;4994801;28;20403;-81
2022/11/25 05:56:41;;;;;;;21.00;13.02;;;9.10;99.90;;;;;;5009593;28;20038;-82
2022/11/25 05:59:07;;;;;;;17.52;12.98;;;9.10;99.90;;;;;;4995030;28;20486;-81
2022/11/25 06:01:33;;;;;;;14.75;12.43;;;9.10;99.90;;;;;;4993101;28;20038;-79
2022/11/25 06:04:03;;;;;;;20.73;13.32;;;9.00;99.90;;;;;;5009223;28;20038;-80
2022/11/25 06:06:29;;;;;;;27.40;16.07;;;8.90;99.90;;;;;;5009727;28;20038;-81
2022/11/25 06:08:55;;;;;;;22.83;14.85;;;8.90;99.90;;;;;;4962359;28;20477;-81
2022/11/25 06:11:21;;;;;;;25.50;14.65;;;8.90;99.90;;;;;;4974473;28;20057;-81
2022/11/25 06:13:48;;;;;;;19.65;14.60;;;8.80;99.90;;;;;;4974593;28;20400;-81
2022/11/25 06:16:18;;;;;;;17.87;13.90;;;8.80;99.90;;;;;;4990720;28;20041;-81
2022/11/25 06:18:44;;;;;;;24.48;14.07;;;8.80;99.90;;;;;;4959284;28;20491;-81
2022/11/25 06:21:11;;;;;;;17.92;14.18;;;8.70;99.90;;;;;;4994600;28;20031;-80
2022/11/25 06:23:37;;;;;;;17.43;13.27;;;8.70;99.90;;;;;;4993792;28;20042;-80
2022/11/25 06:26:16;;;;;;;17.43;13.07;;;8.80;99.90;;;;;;5026024;28;20407;-81
2022/11/25 06:28:42;;;;;;;17.23;14.02;;;8.80;99.90;;;;;;4994933;28;20046;-79
2022/11/25 06:31:20;;;;;;;18.73;12.90;;;8.80;99.90;;;;;;4975963;28;20042;-81
2022/11/25 06:33:47;;;;;;;16.55;14.52;;;8.80;99.90;;;;;;4976369;28;20030;-81
2022/11/25 06:36:16;;;;;;;14.20;12.53;;;8.80;99.90;;;;;;4976902;28;20019;-81
2022/11/25 06:38:46;;;;;;;16.27;13.50;;;8.90;99.90;;;;;;4977487;28;20026;-81
2022/11/25 06:41:12;;;;;;;22.58;12.93;;;8.80;99.90;;;;;;4960325;28;20045;-81
2022/11/25 06:43:38;;;;;;;14.63;13.18;;;8.70;99.90;;;;;;4992346;28;20422;-82
2022/11/25 06:46:06;;;;;;;21.20;13.70;;;8.70;99.90;;;;;;4975922;28;20042;-81
2022/11/25 06:48:32;;;;;;;16.57;14.03;;;8.60;99.90;;;;;;4976358;28;20034;-81
2022/11/25 06:50:59;;;;;;;15.68;14.23;;;8.60;99.90;;;;;;4992918;28;20030;-80
2022/11/25 06:53:25;;;;;;;19.50;14.60;;;8.70;99.90;;;;;;5006005;28;20030;-80
2022/11/25 06:56:22;;;;;;;16.33;14.60;;;8.70;99.90;;;;;;4999247;28;20030;-81
2022/11/25 06:58:48;;;;;;;22.90;14.48;;;8.60;99.90;;;;;;4935597;29;20058;-80
2022/11/25 07:01:19;;;;;;;16.50;14.75;;;8.70;99.90;;;;;;4951635;28;20456;-80
2022/11/25 07:03:46;;;;;;;24.80;14.50;;;8.70;99.90;;;;;;4942027;29;20051;-80
2022/11/25 07:06:13;;;;;;;26.20;19.60;;;8.70;99.90;;;;;;4943041;28;20038;-80
2022/11/25 07:08:40;;;;;;;23.20;17.87;;;8.70;99.90;;;;;;4951904;29;20150;-80
2022/11/25 07:11:09;;;;;;;26.33;16.90;;;8.60;99.90;;;;;;4952824;28;20054;-84
2022/11/25 07:13:35;;;;;;;24.70;17.27;;;8.50;99.90;;;;;;4947600;28;20398;-84
2022/11/25 07:16:03;;;;;;;19.37;16.13;;;8.50;99.90;;;;;;4951606;28;20031;-83
2022/11/25 07:18:33;;;;;;;19.27;17.23;;;8.60;99.90;;;;;;4949152;29;20050;-84
2022/11/25 07:21:06;;;;;;;29.38;18.15;;;8.60;99.90;;;;;;4945032;28;20504;-86
2022/11/25 07:23:33;;;;;;;20.33;16.27;;;8.60;99.90;;;;;;4961053;28;20090;-86
2022/11/25 07:26:09;;;;;;;19.03;16.77;;;8.60;99.90;;;;;;4952556;29;20074;-86
2022/11/25 07:28:35;;;;;;;26.07;16.47;;;8.60;99.90;;;;;;4967929;28;20508;-85
2022/11/25 07:31:09;;;;;;;22.77;15.83;;;8.50;99.90;;;;;;4948759;28;20179;-84
2022/11/25 07:33:35;;;;;;;17.47;15.77;;;8.60;99.90;;;;;;4936807;29;20040;-86
2022/11/25 07:36:03;;;;;;;22.33;18.03;;;8.60;99.90;;;;;;4993577;28;20043;-86
2022/11/25 07:38:29;;;;;;;26.97;21.37;;;8.70;99.90;;;;;;4989356;28;20046;-85
2022/11/25 07:40:56;;;;;;;45.33;33.90;;;8.60;99.90;;;;;;4997171;28;20038;-84
2022/11/25 07:43:22;;;;;;;39.83;32.10;;;8.60;99.90;;;;;;4992806;28;20037;-86
2022/11/25 07:45:48;;;;;;;41.30;30.17;;;8.60;99.90;;;;;;4997741;28;20399;-87
2022/11/25 07:48:14;;;;;;;37.80;27.07;;;8.60;99.90;;;;;;4981387;28;20050;-84
2022/11/25 07:50:40;;;;;;;30.97;25.87;;;8.60;99.90;;;;;;4973687;28;20495;-85
2022/11/25 07:53:07;;;;;;;28.23;25.43;;;8.60;99.90;;;;;;4979702;28;20034;-83
2022/11/25 07:55:33;;;;;;;28.83;25.53;;;8.60;99.90;;;;;;4990217;28;20023;-83
2022/11/25 07:57:59;;;;;;;28.37;23.13;;;8.60;99.90;;;;;;4991777;28;20033;-83
2022/11/25 08:00:25;;;;;;;28.17;25.40;;;8.70;99.90;;;;;;4991816;28;20467;-84
2022/11/25 08:02:52;;;;;;;25.15;21.52;;;8.70;99.90;;;;;;4991713;28;20418;-85
2022/11/25 08:05:18;;;;;;;22.17;19.98;;;8.80;99.90;;;;;;5007693;28;20041;-85
2022/11/25 08:07:44;;;;;;;21.55;19.27;;;8.90;99.90;;;;;;5008189;28;20041;-84
2022/11/25 08:10:10;;;;;;;22.27;19.92;;;8.90;99.90;;;;;;4990423;28;20030;-86
2022/11/25 08:12:36;;;;;;;27.08;20.33;;;8.90;99.90;;;;;;5003148;28;20033;-85
2022/11/25 08:15:02;;;;;;;37.08;33.15;;;8.80;99.90;;;;;;5007429;28;20037;-85
2022/11/25 08:17:28;;;;;;;44.75;40.13;;;8.90;99.90;;;;;;4999362;28;20069;-87
2022/11/25 08:19:54;;;;;;;32.45;29.08;;;8.90;99.90;;;;;;5011522;28;20030;-88
2022/11/25 08:22:20;;;;;;;33.53;24.65;;;9.00;99.90;;;;;;4990048;28;20399;-92
2022/11/25 08:24:47;;;;;;;25.85;21.25;;;9.00;99.90;;;;;;4992997;28;20042;-89
2022/11/25 08:27:13;;;;;;;22.55;20.23;;;9.10;99.90;;;;;;5005388;28;20460;-84
2022/11/25 08:29:39;;;;;;;34.40;31.30;;;9.10;99.90;;;;;;4996857;28;20058;-85
2022/11/25 08:32:07;;;;;;;29.45;25.23;;;9.20;99.90;;;;;;5011140;28;20456;-85
2022/11/25 08:34:33;;;;;;;26.77;23.67;;;9.40;99.90;;;;;;4993790;28;20092;-84
2022/11/25 08:36:59;;;;;;;22.42;19.35;;;9.50;99.90;;;;;;4983685;28;20042;-85
2022/11/25 08:39:25;;;;;;;27.10;24.58;;;9.60;99.90;;;;;;5012792;28;20030;-92
2022/11/25 08:41:51;;;;;;;20.98;19.38;;;9.60;99.90;;;;;;4996446;28;20042;-89
2022/11/25 08:44:17;;;;;;;24.45;21.70;;;9.60;99.90;;;;;;5011605;28;20031;-88
2022/11/25 08:46:44;;;;;;;21.15;19.33;;;9.60;99.90;;;;;;4994333;28;20038;-88
2022/11/25 08:49:10;;;;;;;21.73;19.85;;;9.60;99.90;;;;;;4974838;28;20061;-89
2022/11/25 08:51:36;;;;;;;26.77;19.60;;;9.50;99.90;;;;;;5011639;28;20035;-85
2022/11/25 08:54:04;;;;;;;23.10;19.25;;;9.50;99.90;;;;;;5011564;28;20452;-87
2022/11/25 08:56:30;;;;;;;22.15;19.20;;;9.60;99.90;;;;;;4992871;28;20061;-83
2022/11/25 08:58:56;;;;;;;23.30;19.50;;;9.50;99.90;;;;;;5003073;28;20388;-83
2022/11/25 09:01:22;;;;;;;22.27;19.75;;;9.60;99.90;;;;;;5010690;28;20487;-82
2022/11/25 09:03:50;;;;;;;22.52;20.60;;;9.60;99.90;;;;;;5011477;28;20034;-82
2022/11/25 09:06:16;;;;;;;28.20;23.75;;;9.60;99.90;;;;;;5011456;28;20041;-82
2022/11/25 09:08:42;;;;;;;33.55;24.63;;;9.60;99.90;;;;;;5009593;28;20049;-89
2022/11/25 09:11:08;;;;;;;30.83;25.48;;;9.70;99.90;;;;;;5007778;28;20041;-91
2022/11/25 09:13:35;;;;;;;28.65;24.73;;;9.70;99.90;;;;;;5012245;28;20049;-87
2022/11/25 09:16:01;;;;;;;32.88;25.35;;;9.80;99.90;;;;;;4999362;28;20042;-89
2022/11/25 09:18:29;;;;;;;62.35;25.88;;;9.90;99.90;;;;;;4982311;28;20042;-88
2022/11/25 09:20:55;;;;;;;32.22;24.15;;;10.00;99.90;;;;;;4996154;28;20460;-83
2022/11/25 09:23:25;;;;;;;30.40;25.80;;;9.90;99.90;;;;;;4994684;28;20031;-83
2022/11/25 09:25:52;;;;;;;29.98;25.70;;;10.00;99.90;;;;;;4994579;28;20069;-83
2022/11/25 09:28:19;;;;;;;34.92;25.67;;;10.10;99.90;;;;;;4995004;28;20054;-83
2022/11/25 09:30:45;;;;;;;33.20;24.90;;;10.10;99.90;;;;;;5008252;28;20034;-88
2022/11/25 09:33:11;;;;;;;27.70;25.35;;;10.10;99.90;;;;;;5002918;28;20061;-89
2022/11/25 09:35:37;;;;;;;57.00;26.63;;;10.20;99.90;;;;;;4990572;28;20027;-91
2022/11/25 09:38:03;;;;;;;34.10;26.38;;;10.20;99.90;;;;;;4978456;28;20479;-88
2022/11/25 09:40:40;;;;;;;31.15;28.13;;;10.30;99.90;;;;;;4994580;28;20034;-89
2022/11/25 09:49:19;;;;;;;29.08;22.40;;;10.60;99.90;;;;;;5014486;28;20057;-83
2022/11/25 09:52:06;;;;;;;30.98;21.77;;;10.70;99.90;;;;;;5012845;28;20478;-83
2022/11/25 09:54:37;;;;;;;29.33;24.40;;;10.70;99.90;;;;;;5011345;28;20073;-83
2022/11/25 09:57:23;;;;;;;31.50;25.27;;;10.80;99.90;;;;;;5010692;28;20046;-84
2022/11/25 10:00:00;;;;;;;31.92;27.17;;;10.90;99.90;;;;;;5006641;28;20030;-82
2022/11/25 10:02:51;;;;;;;35.85;27.05;;;10.90;99.90;;;;;;5006094;28;20027;-81
2022/11/25 10:05:33;;;;;;;28.33;25.73;;;11.10;99.90;;;;;;5003802;28;20026;-81
2022/11/25 10:08:02;;;;;;;34.40;18.67;;;11.10;99.90;;;;;;5009906;28;20045;-81
2022/11/25 10:10:49;;;;;;;29.02;17.73;;;11.20;99.90;;;;;;4995468;28;20045;-81
2022/11/25 10:13:40;;;;;;;27.73;18.23;;;11.30;99.90;;;;;;5011496;28;20045;-81
2022/11/25 10:16:07;;;;;;;29.25;19.67;;;11.30;99.90;;;;;;5025201;28;20030;-84
2022/11/25 10:18:54;;;;;;;33.08;18.83;;;11.40;99.90;;;;;;5011698;28;20038;-83
2022/11/25 10:21:20;;;;;;;25.88;20.02;;;11.40;99.90;;;;;;5000986;28;20032;-84
2022/11/25 10:23:46;;;;;;;26.50;19.52;;;11.40;99.90;;;;;;4977294;28;20042;-85
2022/11/25 10:26:14;;;;;;;25.63;20.25;;;11.40;99.90;;;;;;5006306;28;20042;-84
2022/11/25 10:29:10;;;;;;;28.88;18.90;;;11.40;99.90;;;;;;5007820;28;20194;-85
2022/11/25 10:31:36;;;;;;;25.85;19.27;;;11.50;99.90;;;;;;4988816;28;20034;-82
2022/11/25 10:34:25;;;;;;;38.70;23.50;;;11.60;99.90;;;;;;4957759;28;20030;-82
2022/11/25 10:36:51;;;;;;;31.90;23.90;;;11.70;99.90;;;;;;4984672;28;20043;-82
2022/11/25 10:39:23;;;;;;;26.38;18.58;;;11.70;99.90;;;;;;4970437;28;20373;-84
2022/11/25 10:41:57;;;;;;;27.30;18.33;;;11.70;99.90;;;;;;4970277;28;20027;-83
2022/11/25 10:44:29;;;;;;;29.23;18.63;;;11.80;99.90;;;;;;4970799;28;20404;-86
2022/11/25 10:47:21;;;;;;;38.50;24.60;;;11.80;99.90;;;;;;4985639;28;20899;-84
2022/11/25 10:50:05;;;;;;;23.63;18.20;;;11.80;99.90;;;;;;4973985;28;20050;-84
2022/11/25 10:52:35;;;;;;;27.27;17.20;;;11.90;99.90;;;;;;4976936;28;20026;-84
2022/11/25 10:55:12;;;;;;;38.80;17.52;;;12.00;99.90;;;;;;5003822;28;20027;-82
2022/11/25 10:57:39;;;;;;;26.92;16.48;;;12.00;99.90;;;;;;5008434;28;20038;-86
2022/11/25 11:00:06;;;;;;;25.95;18.38;;;12.00;99.90;;;;;;4960325;28;20042;-87
2022/11/25 11:02:38;;;;;;;26.58;18.35;;;12.10;99.90;;;;;;4991731;28;20033;-87
2022/11/25 11:05:07;;;;;;;30.77;16.90;;;12.20;99.90;;;;;;4989271;28;20041;-86
2022/11/25 11:07:36;;;;;;;25.33;16.02;;;12.20;99.90;;;;;;4993537;28;20037;-86
2022/11/25 11:10:16;;;;;;;22.52;14.82;;;12.30;99.90;;;;;;4991633;28;20074;-82
2022/11/25 11:13:01;;;;;;;25.95;15.40;;;12.30;99.90;;;;;;4989973;28;20046;-87
2022/11/25 11:15:27;;;;;;;31.67;15.98;;;12.40;99.90;;;;;;4990839;28;20038;-87
2022/11/25 11:17:54;;;;;;;29.25;16.15;;;12.40;99.90;;;;;;5008924;28;20218;-86
2022/11/25 11:20:28;;;;;;;23.90;15.45;;;12.60;99.90;;;;;;4996816;28;20256;-87
2022/11/25 11:23:03;;;;;;;23.02;15.02;;;12.60;99.90;;;;;;4974166;28;20034;-88
2022/11/25 11:25:34;;;;;;;25.15;15.23;;;12.60;99.90;;;;;;4972903;28;20515;-87
2022/11/25 11:28:00;;;;;;;27.80;16.00;;;12.70;99.90;;;;;;4975882;28;20073;-87
2022/11/25 11:30:28;;;;;;;25.77;15.10;;;12.70;99.90;;;;;;4971571;28;20042;-86
2022/11/25 11:33:00;;;;;;;22.23;13.77;;;12.80;99.90;;;;;;4989766;28;20034;-85
2022/11/25 11:35:29;;;;;;;26.02;16.83;;;12.80;99.90;;;;;;4955853;28;20031;-87
2022/11/25 11:38:03;;;;;;;28.77;16.60;;;12.90;99.90;;;;;;4973906;28;20030;-87
2022/11/25 11:40:36;;;;;;;22.58;14.20;;;13.00;99.90;;;;;;4986205;28;20026;-86
2022/11/25 11:43:05;;;;;;;32.42;16.65;;;13.10;99.90;;;;;;4972748;28;20031;-88
2022/11/25 11:45:52;;;;;;;22.42;14.18;;;13.10;99.90;;;;;;4976313;28;20049;-81
2022/11/25 11:48:36;;;;;;;20.15;14.50;;;13.20;99.90;;;;;;4975193;28;20051;-81
2022/11/25 11:51:34;;;;;;;21.08;14.57;;;13.20;99.90;;;;;;4993481;28;20046;-82
2022/11/25 11:54:06;;;;;;;26.50;16.27;;;13.30;99.90;;;;;;4990110;28;20039;-81
2022/11/25 11:56:56;;;;;;;30.98;13.55;;;13.40;99.90;;;;;;4991620;28;20490;-84
2022/11/25 11:59:41;;;;;;;21.90;15.10;;;13.40;99.90;;;;;;4981636;28;20502;-84
2022/11/25 12:02:44;;;;;;;17.67;13.25;;;13.40;99.90;;;;;;4971629;28;20511;-81
2022/11/25 12:05:10;;;;;;;26.23;15.27;;;13.50;99.90;;;;;;4973340;28;20031;-81
2022/11/25 12:08:10;;;;;;;28.02;15.73;;;13.50;99.90;;;;;;4988721;28;20034;-81
2022/11/25 12:10:50;;;;;;;25.15;14.50;;;13.60;99.90;;;;;;5008072;28;20053;-81
2022/11/25 12:13:21;;;;;;;27.00;14.63;;;13.60;99.90;;;;;;4957010;28;20053;-82
2022/11/25 12:15:54;;;;;;;27.42;14.98;;;13.70;99.90;;;;;;4995609;28;20030;-78
2022/11/25 12:19:02;;;;;;;22.58;14.40;;;13.70;99.90;;;;;;4967068;28;20027;-78
2022/11/25 12:21:45;;;;;;;25.88;14.13;;;13.80;99.90;;;;;;4977397;28;20054;-78
2022/11/25 12:24:38;;;;;;;20.08;14.93;;;14.00;99.90;;;;;;4991015;28;20030;-78
2022/11/25 12:27:10;;;;;;;17.85;14.10;;;14.00;99.90;;;;;;4991624;28;20049;-78
2022/11/25 12:29:57;;;;;;;22.63;15.18;;;14.10;99.90;;;;;;4992008;28;20053;-79
2022/11/25 12:32:44;;;;;;;20.80;14.02;;;14.30;99.90;;;;;;4969445;28;20514;-78
2022/11/25 12:35:10;;;;;;;23.60;16.55;;;14.30;99.90;;;;;;4972757;28;20033;-78
2022/11/25 12:37:42;;;;;;;21.00;16.60;;;14.40;99.90;;;;;;4985968;28;20038;-78
2022/11/25 12:40:20;;;;;;;20.13;17.00;;;14.40;99.90;;;;;;4992282;28;20038;-78
2022/11/25 12:42:47;;;;;;;20.23;17.83;;;14.50;99.90;;;;;;4976089;28;20049;-81
2022/11/25 12:45:21;;;;;;;24.92;16.05;;;14.40;99.90;;;;;;4974913;28;20061;-80
2022/11/25 12:47:47;;;;;;;17.30;15.13;;;14.50;99.90;;;;;;4991358;28;20027;-80
2022/11/25 12:50:25;;;;;;;17.40;15.65;;;14.50;99.90;;;;;;4989972;28;20042;-80
2022/11/25 12:53:00;;;;;;;19.88;14.15;;;14.70;99.90;;;;;;4990317;28;20034;-80
2022/11/25 12:55:27;;;;;;;19.95;13.65;;;14.70;99.90;;;;;;4992155;28;20501;-80
2022/11/25 12:58:05;;;;;;;15.27;13.68;;;14.70;99.90;;;;;;5007051;28;20034;-81